createdAt,value
2022-12-11T09:19:50.385Z,10.25
2022-12-11T09:23:26.510Z,10.24
2022-12-11T09:25:55.633Z,10.35
2022-12-11T09:28:25.259Z,10.28
2022-12-11T09:30:54.409Z,10.23
2022-12-11T09:33:23.415Z,10.26
2022-12-11T09:36:00.819Z,10.26
2022-12-11T09:38:29.913Z,10.25
2022-12-11T09:40:59.694Z,10.20
2022-12-11T09:43:37.840Z,10.20
2022-12-11T09:46:09.812Z,10.28
2022-12-11T09:48:41.549Z,10.30
2022-12-11T09:51:25.495Z,10.41
2022-12-11T09:53:56.401Z,10.41
2022-12-11T09:56:37.656Z,10.51
2022-12-11T09:59:28.940Z,10.51
2022-12-11T10:02:17.877Z,10.60
2022-12-11T10:05:11.047Z,10.71
2022-12-11T10:07:49.195Z,10.81
2022-12-11T10:10:36.246Z,10.86
2022-12-11T10:13:11.156Z,10.80
2022-12-11T10:16:01.429Z,10.87
2022-12-11T10:18:33.800Z,10.87
2022-12-11T10:21:04.381Z,10.88
2022-12-11T10:23:36.385Z,10.83
2022-12-11T10:26:10.981Z,10.89
2022-12-11T10:28:39.973Z,10.89
2022-12-11T10:31:21.050Z,10.94
2022-12-11T10:33:52.941Z,10.88
2022-12-11T10:36:39.907Z,11.00
2022-12-11T10:39:17.933Z,11.00
2022-12-11T10:41:49.841Z,10.93
2022-12-11T10:44:27.016Z,11.10
2022-12-11T10:47:08.525Z,11.10
2022-12-11T10:49:40.231Z,11.09
2022-12-11T10:52:27.041Z,11.01
2022-12-11T10:55:13.396Z,10.88
2022-12-11T10:57:42.896Z,10.92
2022-12-11T11:00:32.932Z,10.75
2022-12-11T11:03:03.198Z,10.82
2022-12-11T11:05:37.128Z,10.79
2022-12-11T11:08:19.540Z,10.72
2022-12-11T11:11:00.259Z,10.80
2022-12-11T11:13:32.435Z,10.80
2022-12-11T11:16:10.501Z,10.80
2022-12-11T11:18:42.467Z,10.85
2022-12-11T11:21:22.989Z,10.97
2022-12-11T11:23:53.834Z,10.97
2022-12-11T11:26:23.950Z,10.90
2022-12-11T11:28:58.302Z,10.86
2022-12-11T11:31:35.765Z,10.84
2022-12-11T11:34:11.066Z,10.75
2022-12-11T11:36:40.007Z,10.75
2022-12-11T11:39:26.281Z,10.75
2022-12-11T11:42:04.134Z,10.80
2022-12-11T11:44:35.973Z,10.80
2022-12-11T11:47:13.910Z,10.69
2022-12-11T11:50:10.423Z,10.58
2022-12-11T11:52:45.635Z,10.58
2022-12-11T11:55:23.988Z,10.37
2022-12-11T11:58:17.719Z,10.32
2022-12-11T12:00:46.688Z,10.32
2022-12-11T12:03:18.737Z,10.24
2022-12-11T12:05:56.532Z,10.16
2022-12-11T12:08:42.992Z,10.16
2022-12-11T12:11:36.006Z,10.14
2022-12-11T12:14:29.086Z,10.14
2022-12-11T12:16:52.671Z,10.14
2022-12-11T12:19:38.967Z,10.05
2022-12-11T12:22:46.191Z,10.05
2022-12-11T12:25:24.067Z,9.98
2022-12-11T12:28:17.017Z,9.98
2022-12-11T12:31:08.148Z,9.87
2022-12-11T12:34:09.091Z,9.87
2022-12-11T12:36:46.947Z,9.88
2022-12-11T12:39:18.902Z,9.88
2022-12-11T12:41:53.783Z,9.93
2022-12-11T12:44:25.851Z,9.86
2022-12-11T12:47:00.871Z,9.78
2022-12-11T12:49:35.914Z,9.79
2022-12-11T12:52:06.987Z,9.85
2022-12-11T12:54:42.209Z,9.85
2022-12-11T12:57:11.508Z,9.77
2022-12-11T12:59:43.242Z,9.77
2022-12-11T13:02:15.239Z,9.79
2022-12-11T13:04:57.366Z,9.72
2022-12-11T13:07:25.891Z,9.75
2022-12-11T13:10:03.967Z,9.72
2022-12-11T13:12:36.044Z,9.72
2022-12-11T13:15:05.211Z,9.69
2022-12-11T13:17:39.793Z,9.70
2022-12-11T13:20:20.545Z,9.70
2022-12-11T13:22:52.030Z,9.68
2022-12-11T13:25:29.893Z,9.68
2022-12-11T13:28:10.688Z,9.68
2022-12-11T13:30:39.660Z,9.69
2022-12-11T13:33:11.661Z,9.70
2022-12-11T13:35:41.351Z,9.67
2022-12-11T13:38:13.198Z,9.73
2022-12-11T13:40:45.247Z,9.69
2022-12-11T13:43:19.949Z,9.69
2022-12-11T13:45:51.687Z,9.75
2022-12-11T13:48:32.315Z,9.71
2022-12-11T13:51:02.454Z,9.75
2022-12-11T13:53:31.884Z,9.78
2022-12-11T13:56:06.714Z,9.82
2022-12-11T13:58:38.548Z,9.82
2022-12-11T14:01:30.149Z,9.89
2022-12-11T14:04:02.090Z,9.89
2022-12-11T14:06:34.224Z,9.89
2022-12-11T14:09:04.955Z,9.86
2022-12-11T14:11:37.025Z,9.89
2022-12-11T14:14:08.868Z,9.87
2022-12-11T14:16:37.923Z,9.89
2022-12-11T14:19:13.005Z,9.89
2022-12-11T14:21:41.903Z,9.96
2022-12-11T14:24:14.985Z,9.95
2022-12-11T14:26:46.818Z,10.01
2022-12-11T14:29:33.500Z,9.99
2022-12-11T14:32:07.800Z,9.99
2022-12-11T14:34:39.889Z,10.05
2022-12-11T14:37:10.232Z,10.05
2022-12-11T14:40:00.352Z,10.09
2022-12-11T14:42:32.172Z,10.06
2022-12-11T14:45:22.211Z,10.09
2022-12-11T14:47:53.691Z,10.06
2022-12-11T14:50:31.355Z,10.13
2022-12-11T14:53:03.371Z,10.19
2022-12-11T14:55:35.465Z,10.19
2022-12-11T14:58:07.917Z,10.13
2022-12-11T15:00:39.791Z,10.13
2022-12-11T15:03:20.590Z,10.19
2022-12-11T15:05:55.155Z,10.13
2022-12-11T15:08:33.495Z,10.10
2022-12-11T15:11:18.162Z,10.06
2022-12-11T15:14:01.952Z,10.06
2022-12-11T15:16:36.668Z,9.75
2022-12-11T15:19:05.944Z,9.64
2022-12-11T15:21:37.242Z,9.54
2022-12-11T15:24:07.683Z,9.54
2022-12-11T15:26:39.386Z,9.39
2022-12-11T15:29:27.608Z,9.33
2022-12-11T15:32:12.949Z,9.29
2022-12-11T15:34:48.128Z,9.26
2022-12-11T15:37:28.558Z,9.24
2022-12-11T15:39:59.688Z,9.26
2022-12-11T15:42:37.149Z,9.23
2022-12-11T15:45:08.620Z,9.23
2022-12-11T15:47:37.630Z,9.23
2022-12-11T15:50:27.669Z,9.21
2022-12-11T15:52:58.047Z,9.21
2022-12-11T15:55:34.316Z,9.22
2022-12-11T15:58:09.486Z,9.13
2022-12-11T16:00:38.584Z,9.16
2022-12-11T16:03:07.611Z,9.15
2022-12-11T16:05:36.663Z,9.11
2022-12-11T16:08:06.107Z,9.10
2022-12-11T16:10:35.335Z,9.10
2022-12-11T16:13:04.297Z,9.05
2022-12-11T16:15:33.341Z,9.04
2022-12-11T16:18:04.861Z,9.03
2022-12-11T16:20:36.471Z,9.03
2022-12-11T16:23:06.196Z,8.99
2022-12-11T16:25:35.541Z,8.91
2022-12-11T16:28:04.831Z,8.91
2022-12-11T16:30:35.405Z,8.92
2022-12-11T16:33:11.757Z,8.87
2022-12-11T16:35:36.715Z,8.91
2022-12-11T16:38:05.735Z,8.90
2022-12-11T16:40:34.795Z,8.87
2022-12-11T16:43:05.351Z,8.85
2022-12-11T16:45:34.290Z,8.85
2022-12-11T16:48:06.558Z,8.81
2022-12-11T16:50:36.563Z,8.80
2022-12-11T16:53:05.590Z,8.75
2022-12-11T16:55:34.680Z,8.72
2022-12-11T16:58:03.651Z,8.72
2022-12-11T17:00:32.803Z,8.74
2022-12-11T17:03:02.657Z,8.71
2022-12-11T17:05:31.765Z,8.72
2022-12-11T17:08:00.867Z,8.72
2022-12-11T17:10:29.977Z,8.68
2022-12-11T17:12:58.960Z,8.75
2022-12-11T17:15:28.047Z,8.77
2022-12-11T17:17:57.182Z,8.79
2022-12-11T17:20:26.240Z,8.82
2022-12-11T17:22:55.362Z,8.83
2022-12-11T17:25:24.407Z,8.86
2022-12-11T17:27:53.448Z,8.86
2022-12-11T17:30:22.494Z,8.85
2022-12-11T17:32:51.547Z,8.90
2022-12-11T17:35:20.500Z,8.90
2022-12-11T17:37:49.578Z,8.89
2022-12-11T17:40:19.157Z,8.93
2022-12-11T17:42:48.162Z,8.95
2022-12-11T17:45:17.146Z,8.98
2022-12-11T17:47:46.113Z,8.99
2022-12-11T17:50:15.468Z,9.00
2022-12-11T17:52:44.647Z,9.00
2022-12-11T17:55:14.052Z,9.03
2022-12-11T17:57:43.370Z,9.02
2022-12-11T18:00:13.307Z,9.02
2022-12-11T18:02:42.345Z,9.02
2022-12-11T18:05:12.298Z,9.02
2022-12-11T18:07:41.780Z,9.03
2022-12-11T18:10:11.016Z,8.98
2022-12-11T18:12:40.094Z,8.96
2022-12-11T18:15:11.020Z,8.96
2022-12-11T18:17:40.172Z,8.96
2022-12-11T18:20:10.971Z,8.93
2022-12-11T18:22:40.140Z,8.93
2022-12-11T18:25:11.370Z,8.84
2022-12-11T18:27:41.053Z,8.82
2022-12-11T18:30:12.736Z,8.82
2022-12-11T18:32:43.145Z,8.69
2022-12-11T18:35:13.065Z,8.66
2022-12-11T18:37:42.539Z,8.64
2022-12-11T18:40:12.827Z,8.61
2022-12-11T18:42:41.802Z,8.58
2022-12-11T18:45:11.508Z,8.52
2022-12-11T18:47:40.701Z,8.49
2022-12-11T18:50:09.925Z,8.43
2022-12-11T18:52:38.922Z,8.40
2022-12-11T18:55:08.688Z,8.40
2022-12-11T18:57:37.743Z,8.41
2022-12-11T19:00:07.862Z,8.41
2022-12-11T19:02:37.437Z,8.42
2022-12-11T19:05:06.698Z,8.48
2022-12-11T19:07:35.852Z,8.51
2022-12-11T19:10:05.810Z,8.51
2022-12-11T19:12:35.598Z,8.52
2022-12-11T19:15:05.105Z,8.55
2022-12-11T19:17:34.324Z,8.55
2022-12-11T19:20:25.100Z,8.58
2022-12-11T19:22:34.030Z,8.62
2022-12-11T19:25:03.001Z,8.62
2022-12-11T19:27:31.962Z,8.57
2022-12-11T19:30:01.059Z,8.49
2022-12-11T19:32:34.789Z,8.39
2022-12-11T19:35:01.305Z,8.35
2022-12-11T19:37:30.392Z,8.24
2022-12-11T19:39:59.454Z,8.20
2022-12-11T19:42:28.927Z,8.20
2022-12-11T19:44:57.944Z,8.19
2022-12-11T19:47:26.918Z,8.19
2022-12-11T19:49:56.806Z,8.26
2022-12-11T19:52:27.485Z,8.26
2022-12-11T19:54:56.625Z,8.31
2022-12-11T19:57:25.757Z,8.41
2022-12-11T19:59:57.396Z,8.46
2022-12-11T20:02:25.436Z,8.47
2022-12-11T20:04:54.882Z,8.49
2022-12-11T20:07:28.969Z,8.49
2022-12-11T20:09:54.634Z,8.49
2022-12-11T20:12:27.149Z,8.28
2022-12-11T20:14:56.128Z,8.26
2022-12-11T20:17:25.250Z,8.21
2022-12-11T20:19:54.326Z,8.27
2022-12-11T20:22:23.309Z,8.23
2022-12-11T20:24:52.417Z,8.23
2022-12-11T20:27:21.495Z,8.22
2022-12-11T20:29:50.441Z,8.21
2022-12-11T20:32:19.413Z,8.21
2022-12-11T20:34:48.385Z,8.10
2022-12-11T20:37:17.442Z,8.10
2022-12-11T20:39:46.469Z,8.02
2022-12-11T20:42:15.463Z,8.04
2022-12-11T20:44:48.964Z,8.04
2022-12-11T20:47:15.815Z,7.94
2022-12-11T20:49:44.843Z,7.98
2022-12-11T20:52:13.999Z,8.01
2022-12-11T20:54:43.045Z,8.03
2022-12-11T20:57:13.959Z,8.03
2022-12-11T20:59:43.386Z,7.94
2022-12-11T21:02:13.875Z,7.86
2022-12-11T21:04:43.370Z,7.75
2022-12-11T21:07:12.479Z,7.72
2022-12-11T21:09:41.682Z,7.72
2022-12-11T21:12:10.757Z,7.70
2022-12-11T21:14:39.845Z,7.76
2022-12-11T21:17:08.972Z,7.76
2022-12-11T21:19:38.321Z,7.80
2022-12-11T21:22:07.284Z,7.85
2022-12-11T21:24:36.309Z,7.88
2022-12-11T21:27:06.703Z,7.89
2022-12-11T21:29:36.106Z,7.89
2022-12-11T21:32:05.552Z,7.95
2022-12-11T21:34:34.738Z,7.91
2022-12-11T21:37:03.708Z,7.93
2022-12-11T21:39:38.965Z,7.90
2022-12-11T21:42:03.470Z,7.84
2022-12-11T21:47:03.135Z,8.00
2022-12-11T21:49:32.567Z,8.06
2022-12-11T21:52:01.615Z,8.06
2022-12-11T21:54:30.561Z,8.33
2022-12-11T21:56:59.688Z,8.36
2022-12-11T21:59:29.030Z,8.41
2022-12-11T22:01:58.242Z,8.49
2022-12-11T22:04:27.232Z,8.50
2022-12-11T22:06:56.248Z,8.50
2022-12-11T22:09:26.010Z,8.57
2022-12-11T22:11:58.433Z,8.57
2022-12-11T22:14:25.695Z,8.63
2022-12-11T22:16:54.740Z,8.67
2022-12-11T22:19:26.664Z,8.69
2022-12-11T22:21:54.408Z,8.68
2022-12-11T22:24:23.416Z,8.66
2022-12-11T22:26:52.556Z,8.68
2022-12-11T22:29:21.584Z,8.67
2022-12-11T22:31:50.787Z,8.61
2022-12-11T22:34:19.966Z,8.61
2022-12-11T22:36:48.994Z,8.63
2022-12-11T22:39:18.079Z,8.60
2022-12-11T22:41:47.106Z,8.56
2022-12-11T22:44:18.291Z,8.57
2022-12-11T22:46:50.251Z,8.56
2022-12-11T22:49:18.533Z,8.55
2022-12-11T22:51:47.810Z,8.62
2022-12-11T22:54:17.192Z,8.62
2022-12-11T22:56:46.293Z,8.56
2022-12-11T22:59:15.440Z,8.61
2022-12-11T23:01:44.497Z,8.62
2022-12-11T23:04:13.734Z,8.55
2022-12-11T23:06:42.882Z,8.49
2022-12-11T23:09:12.703Z,8.53
2022-12-11T23:11:42.353Z,8.53
2022-12-11T23:14:14.256Z,8.54
2022-12-11T23:16:43.749Z,8.51
2022-12-11T23:19:13.580Z,8.55
2022-12-11T23:21:42.545Z,8.52
2022-12-11T23:24:12.562Z,8.52
2022-12-11T23:26:41.872Z,8.53
2022-12-11T23:29:11.394Z,8.54
2022-12-11T23:31:40.638Z,8.57
2022-12-11T23:34:09.666Z,8.64
2022-12-11T23:36:38.945Z,8.63
2022-12-11T23:39:07.970Z,8.62
2022-12-11T23:41:37.036Z,8.65
2022-12-11T23:44:05.994Z,8.68
2022-12-11T23:46:35.066Z,8.62
2022-12-11T23:49:05.128Z,8.62
2022-12-11T23:51:34.137Z,8.64
2022-12-11T23:54:03.362Z,8.62
2022-12-11T23:56:32.459Z,8.58
2022-12-11T23:59:01.647Z,8.58
